createdAt,value
2023-05-05T00:01:08.526Z,97273.34
2023-05-05T00:03:35.653Z,97273.88
2023-05-05T00:06:02.756Z,97277.38
2023-05-05T00:08:29.253Z,97270.56
2023-05-05T00:10:56.525Z,97272.19
2023-05-05T00:13:23.514Z,97277.13
2023-05-05T00:15:52.378Z,97274.66
2023-05-05T00:18:19.804Z,97268.69
2023-05-05T00:20:47.332Z,97264.81
2023-05-05T00:23:14.839Z,97267.00
2023-05-05T00:25:41.579Z,97274.56
2023-05-05T00:28:08.103Z,97278.38
2023-05-05T00:30:37.253Z,97278.34
2023-05-05T00:33:03.873Z,97275.84
2023-05-05T00:35:30.394Z,97269.22
2023-05-05T00:37:56.878Z,97278.44
2023-05-05T00:40:23.518Z,97272.97
2023-05-05T00:42:52.566Z,97278.66
2023-05-05T00:45:19.985Z,97276.50
2023-05-05T00:47:49.183Z,97271.34
2023-05-05T00:50:25.898Z,97276.25
2023-05-05T00:53:10.576Z,97272.16
2023-05-05T00:55:37.132Z,97268.09
2023-05-05T00:58:06.457Z,97271.06
2023-05-05T01:00:33.356Z,97269.97
2023-05-05T01:02:59.958Z,97274.53
2023-05-05T01:05:38.419Z,97271.88
2023-05-05T01:08:07.900Z,97263.19
2023-05-05T01:10:59.232Z,97265.38
2023-05-05T01:13:42.604Z,97264.78
2023-05-05T01:16:18.335Z,97265.25
2023-05-05T01:19:03.014Z,97265.50
2023-05-05T01:21:36.105Z,97260.56
2023-05-05T01:24:11.623Z,97258.88
2023-05-05T01:27:09.413Z,97253.63
2023-05-05T01:30:00.896Z,97267.50
2023-05-05T01:32:29.954Z,97261.72
2023-05-05T01:35:01.952Z,97250.34
2023-05-05T01:37:54.286Z,97257.69
2023-05-05T01:40:25.969Z,97250.19
2023-05-05T01:42:54.173Z,97258.88
2023-05-05T01:45:24.797Z,97258.34
2023-05-05T01:47:53.497Z,97254.31
2023-05-05T01:50:21.295Z,97264.31
2023-05-05T01:52:48.768Z,97260.44
2023-05-05T01:55:18.286Z,97262.38
2023-05-05T01:57:47.138Z,97271.84
2023-05-05T02:00:15.458Z,97270.69
2023-05-05T02:02:45.074Z,97272.25
2023-05-05T02:05:13.070Z,97276.75
2023-05-05T02:07:39.817Z,97282.72
2023-05-05T02:10:08.229Z,97289.25
2023-05-05T02:12:37.069Z,97286.84
2023-05-05T02:15:05.368Z,97290.63
2023-05-05T02:17:32.707Z,97279.78
2023-05-05T02:20:02.007Z,97289.00
2023-05-05T02:22:28.770Z,97290.34
2023-05-05T02:24:55.420Z,97282.19
2023-05-05T02:27:23.887Z,97287.97
2023-05-05T02:29:58.555Z,97291.34
2023-05-05T02:32:33.981Z,97290.47
2023-05-05T02:35:15.475Z,97287.59
2023-05-05T02:37:49.035Z,97292.28
2023-05-05T02:40:22.372Z,97290.69
2023-05-05T02:42:51.322Z,97298.59
2023-05-05T02:45:21.479Z,97293.25
2023-05-05T02:47:49.478Z,97299.19
2023-05-05T02:50:16.186Z,97298.06
2023-05-05T02:52:51.864Z,97300.19
2023-05-05T02:55:20.166Z,97296.97
2023-05-05T02:57:52.773Z,97300.19
2023-05-05T03:00:23.976Z,97304.03
2023-05-05T03:03:16.286Z,97306.53
2023-05-05T03:06:07.324Z,97315.00
2023-05-05T03:08:44.385Z,97298.50
2023-05-05T03:11:32.106Z,97300.19
2023-05-05T03:14:21.006Z,97298.34
2023-05-05T03:16:49.847Z,97297.56
2023-05-05T03:19:19.319Z,97297.84
2023-05-05T03:21:48.594Z,97297.84
2023-05-05T03:24:17.160Z,97300.84
2023-05-05T03:26:49.931Z,97301.69
2023-05-05T03:29:19.758Z,97298.44
2023-05-05T03:31:46.389Z,97301.16
2023-05-05T03:34:13.581Z,97298.16
2023-05-05T03:36:45.718Z,97303.59
2023-05-05T03:39:14.623Z,97304.38
2023-05-05T03:41:41.297Z,97300.31
2023-05-05T03:44:09.614Z,97305.19
2023-05-05T03:46:36.908Z,97300.84
2023-05-05T03:49:05.133Z,97305.44
2023-05-05T03:51:32.590Z,97299.22
2023-05-05T03:53:59.665Z,97305.47
2023-05-05T03:56:26.771Z,97295.72
2023-05-05T03:58:53.246Z,97304.66
2023-05-05T04:01:19.748Z,97299.25
2023-05-05T04:03:46.465Z,97304.13
2023-05-05T04:06:13.070Z,97305.22
2023-05-05T04:08:39.530Z,97296.25
2023-05-05T04:11:05.978Z,97301.69
2023-05-05T04:13:34.041Z,97293.53
2023-05-05T04:16:01.928Z,97294.06
2023-05-05T04:18:28.962Z,97304.97
2023-05-05T04:20:55.450Z,97302.78
2023-05-05T04:23:22.635Z,97302.00
2023-05-05T04:25:49.802Z,97302.00
2023-05-05T04:28:16.355Z,97311.78
2023-05-05T04:30:42.786Z,97316.13
2023-05-05T04:33:09.331Z,97316.69
2023-05-05T04:35:35.872Z,97324.28
2023-05-05T04:38:02.388Z,97326.44
2023-05-05T04:40:28.908Z,97320.78
2023-05-05T04:42:57.098Z,97324.56
2023-05-05T04:45:23.757Z,97324.84
2023-05-05T04:47:50.393Z,97328.94
2023-05-05T04:50:16.908Z,97337.09
2023-05-05T04:52:43.383Z,97338.44
2023-05-05T04:55:10.636Z,97334.09
2023-05-05T04:57:37.270Z,97334.06
2023-05-05T05:00:05.244Z,97338.16
2023-05-05T05:02:32.261Z,97336.00
2023-05-05T05:04:58.735Z,97335.19
2023-05-05T05:07:26.001Z,97334.06
2023-05-05T05:09:52.549Z,97332.16
2023-05-05T05:12:19.263Z,97334.59
2023-05-05T05:14:45.855Z,97335.94
2023-05-05T05:17:12.418Z,97345.41
2023-05-05T05:19:39.172Z,97333.88
2023-05-05T05:22:05.726Z,97333.47
2023-05-05T05:24:36.403Z,97336.53
2023-05-05T05:27:03.168Z,97339.59
2023-05-05T05:29:29.983Z,97345.22
2023-05-05T05:31:59.379Z,97345.94
2023-05-05T05:34:26.007Z,97354.56
2023-05-05T05:36:52.688Z,97349.31
2023-05-05T05:39:19.371Z,97350.84
2023-05-05T05:41:45.818Z,97351.00
2023-05-05T05:44:12.549Z,97359.53
2023-05-05T05:46:39.199Z,97363.63
2023-05-05T05:49:06.002Z,97363.59
2023-05-05T05:51:32.523Z,97365.50
2023-05-05T05:53:59.104Z,97361.66
2023-05-05T05:56:25.942Z,97358.78
2023-05-05T05:58:52.922Z,97352.72
2023-05-05T06:01:19.766Z,97362.66
2023-05-05T06:03:46.959Z,97368.81
2023-05-05T06:06:13.576Z,97359.97
2023-05-05T06:08:40.114Z,97370.78
2023-05-05T06:11:06.736Z,97365.41
2023-05-05T06:13:34.075Z,97364.91
2023-05-05T06:16:00.758Z,97367.50
2023-05-05T06:18:27.685Z,97362.78
2023-05-05T06:20:54.124Z,97372.44
2023-05-05T06:23:25.103Z,97376.47
2023-05-05T06:25:57.111Z,97373.28
2023-05-05T06:28:23.627Z,97372.25
2023-05-05T06:30:50.005Z,97373.19
2023-05-05T06:33:16.505Z,97381.09
2023-05-05T06:35:42.927Z,97382.31
2023-05-05T06:38:09.771Z,97377.75
2023-05-05T06:40:36.275Z,97373.91
2023-05-05T06:43:02.729Z,97371.09
2023-05-05T06:45:34.956Z,97371.09
2023-05-05T06:48:01.513Z,97375.13
2023-05-05T06:50:28.261Z,97378.16
2023-05-05T06:52:54.720Z,97383.34
2023-05-05T06:55:21.467Z,97385.53
2023-05-05T06:57:48.858Z,97381.31
2023-05-05T07:00:16.838Z,97379.28
2023-05-05T07:02:43.494Z,97382.81
2023-05-05T07:05:10.426Z,97383.84
2023-05-05T07:07:37.136Z,97387.03
2023-05-05T07:10:03.790Z,97389.41
2023-05-05T07:12:33.213Z,97392.50
2023-05-05T07:15:00.702Z,97393.59
2023-05-05T07:17:29.604Z,97399.56
2023-05-05T07:19:56.064Z,97393.88
2023-05-05T07:22:22.544Z,97393.88
2023-05-05T07:24:49.811Z,97393.25
2023-05-05T07:27:17.748Z,97397.03
2023-05-05T07:29:44.232Z,97399.59
2023-05-05T07:32:10.825Z,97404.63
2023-05-05T07:34:37.982Z,97405.16
2023-05-05T07:37:05.106Z,97404.25
2023-05-05T07:39:32.022Z,97405.72
2023-05-05T07:41:58.593Z,97400.75
2023-05-05T07:44:25.600Z,97400.13
2023-05-05T07:46:52.018Z,97404.56
2023-05-05T07:49:19.580Z,97407.88
2023-05-05T07:51:46.274Z,97412.03
2023-05-05T07:54:12.755Z,97409.50
2023-05-05T07:56:39.246Z,97408.56
2023-05-05T07:59:05.849Z,97411.38
2023-05-05T08:01:32.325Z,97414.16
2023-05-05T08:03:58.886Z,97407.22
2023-05-05T08:06:27.708Z,97410.97
2023-05-05T08:08:55.233Z,97413.69
2023-05-05T08:11:22.055Z,97414.22
2023-05-05T08:13:48.850Z,97412.91
2023-05-05T08:16:15.682Z,97410.75
2023-05-05T08:18:42.939Z,97406.25
2023-05-05T08:21:10.198Z,97406.69
2023-05-05T08:23:37.707Z,97405.38
2023-05-05T08:26:11.889Z,97408.94
2023-05-05T08:28:38.361Z,97411.00
2023-05-05T08:31:06.492Z,97415.41
2023-05-05T08:33:32.952Z,97423.06
2023-05-05T08:35:59.415Z,97407.94
2023-05-05T08:38:25.895Z,97415.44
2023-05-05T08:40:52.886Z,97412.59
2023-05-05T08:43:22.631Z,97416.88
2023-05-05T08:45:49.766Z,97412.88
2023-05-05T08:48:19.374Z,97420.34
2023-05-05T08:50:51.515Z,97421.69
2023-05-05T08:53:44.184Z,97415.03
2023-05-05T08:56:14.509Z,97422.03
2023-05-05T08:58:42.897Z,97424.03
2023-05-05T09:01:10.692Z,97413.03
2023-05-05T09:03:38.655Z,97413.31
2023-05-05T09:06:05.764Z,97417.19
2023-05-05T09:08:33.270Z,97408.88
2023-05-05T09:11:02.087Z,97412.59
2023-05-05T09:13:31.010Z,97416.59
2023-05-05T09:16:00.428Z,97412.13
2023-05-05T09:18:27.130Z,97413.13
2023-05-05T09:20:53.564Z,97412.28
2023-05-05T09:23:21.372Z,97405.94
2023-05-05T09:26:04.291Z,97405.81
2023-05-05T09:28:31.332Z,97411.28
2023-05-05T09:31:12.661Z,97406.91
2023-05-05T09:33:39.288Z,97410.50
2023-05-05T09:36:06.158Z,97409.41
2023-05-05T09:38:33.032Z,97404.22
2023-05-05T09:40:59.441Z,97414.53
2023-05-05T09:43:26.066Z,97410.31
2023-05-05T09:46:07.352Z,97420.97
2023-05-05T09:48:33.897Z,97413.75
2023-05-05T09:51:00.666Z,97417.63
2023-05-05T09:53:37.666Z,97407.06
2023-05-05T09:56:04.362Z,97407.03
2023-05-05T09:58:31.301Z,97407.28
2023-05-05T10:00:58.836Z,97405.41
2023-05-05T10:03:26.084Z,97403.47
2023-05-05T10:05:55.683Z,97402.78
2023-05-05T10:08:25.021Z,97405.06
2023-05-05T10:10:56.553Z,97406.19
2023-05-05T10:13:24.907Z,97400.34
2023-05-05T10:15:56.553Z,97399.69
2023-05-05T10:18:25.138Z,97397.28
2023-05-05T10:21:04.329Z,97398.34
2023-05-05T10:23:48.753Z,97395.34
2023-05-05T10:26:17.044Z,97395.91
2023-05-05T10:29:01.342Z,97386.38
2023-05-05T10:31:36.276Z,97391.53
2023-05-05T10:34:26.997Z,97389.31
2023-05-05T10:36:55.092Z,97391.22
2023-05-05T10:39:23.541Z,97393.31
2023-05-05T10:41:51.601Z,97383.25
2023-05-05T10:44:18.219Z,97388.81
2023-05-05T10:46:45.126Z,97382.09
2023-05-05T10:49:25.063Z,97380.50
2023-05-05T10:52:00.751Z,97378.78
2023-05-05T10:54:38.251Z,97375.31
2023-05-05T10:57:07.072Z,97380.91
2023-05-05T10:59:36.704Z,97363.97
2023-05-05T11:02:21.375Z,97362.25
2023-05-05T11:05:07.107Z,97353.22
2023-05-05T11:07:34.431Z,97355.59
2023-05-05T11:10:03.291Z,97353.94
2023-05-05T11:12:32.199Z,97348.25
2023-05-05T11:15:33.509Z,97347.50
2023-05-05T11:18:07.003Z,97352.91
2023-05-05T11:20:37.583Z,97343.13
2023-05-05T11:23:04.313Z,97343.84
2023-05-05T11:25:37.886Z,97346.34
2023-05-05T11:28:11.125Z,97340.41
2023-05-05T11:30:56.129Z,97337.41
2023-05-05T11:33:29.113Z,97333.31
2023-05-05T11:36:09.808Z,97329.66
2023-05-05T11:38:36.267Z,97330.13
2023-05-05T11:41:12.690Z,97330.59
2023-05-05T11:43:40.021Z,97325.22
2023-05-05T11:46:16.761Z,97316.50
2023-05-05T11:48:46.679Z,97316.50
2023-05-05T11:51:17.318Z,97319.75
2023-05-05T11:53:44.521Z,97315.69
2023-05-05T11:56:12.590Z,97323.56
2023-05-05T11:58:39.233Z,97317.28
2023-05-05T12:01:08.950Z,97322.41
2023-05-05T12:03:36.889Z,97314.34
2023-05-05T12:06:04.562Z,97302.75
2023-05-05T12:08:37.684Z,97314.88
2023-05-05T12:11:06.500Z,97311.16
2023-05-05T12:13:33.085Z,97301.25
2023-05-05T12:16:09.466Z,97302.53
2023-05-05T12:18:36.028Z,97302.66
2023-05-05T12:21:12.526Z,97299.47
2023-05-05T12:23:39.137Z,97289.31
2023-05-05T12:26:05.660Z,97292.34
2023-05-05T12:28:46.414Z,97290.94
2023-05-05T12:31:13.409Z,97290.53
2023-05-05T12:33:41.132Z,97287.44
2023-05-05T12:36:08.738Z,97286.31
2023-05-05T12:38:36.124Z,97276.66
2023-05-05T12:41:02.655Z,97271.06
2023-05-05T12:43:34.146Z,97273.94
2023-05-05T12:46:06.296Z,97272.81
2023-05-05T12:48:34.133Z,97265.00
2023-05-05T12:51:21.052Z,97267.22
2023-05-05T12:53:48.492Z,97261.75
2023-05-05T12:56:34.009Z,97250.25
2023-05-05T12:59:05.748Z,97253.59
2023-05-05T13:01:32.981Z,97247.97
2023-05-05T13:04:14.993Z,97243.22
2023-05-05T13:06:46.469Z,97242.50
2023-05-05T13:09:24.051Z,97243.34
2023-05-05T13:11:50.667Z,97240.16
2023-05-05T13:14:17.150Z,97243.88
2023-05-05T13:16:43.686Z,97242.81
2023-05-05T13:19:10.107Z,97245.03
2023-05-05T13:21:36.640Z,97236.63
2023-05-05T13:24:18.343Z,97231.78
2023-05-05T13:26:51.380Z,97228.03
2023-05-05T13:29:18.670Z,97222.75
2023-05-05T13:31:45.804Z,97216.97
2023-05-05T13:34:12.401Z,97209.06
2023-05-05T13:36:38.834Z,97201.50
2023-05-05T13:39:05.318Z,97199.91
2023-05-05T13:41:31.725Z,97199.06
2023-05-05T13:43:58.158Z,97195.53
2023-05-05T13:46:24.678Z,97185.31
2023-05-05T13:48:56.069Z,97180.66
2023-05-05T13:51:22.985Z,97184.19
2023-05-05T13:53:49.609Z,97182.75
2023-05-05T13:56:17.760Z,97170.50
2023-05-05T13:58:44.208Z,97166.09
2023-05-05T14:01:10.978Z,97164.47
2023-05-05T14:03:39.460Z,97157.69
2023-05-05T14:06:06.890Z,97156.84
2023-05-05T14:08:33.543Z,97160.09
2023-05-05T14:11:00.005Z,97157.19
2023-05-05T14:13:26.639Z,97158.00
2023-05-05T14:15:53.713Z,97157.69
2023-05-05T14:18:20.752Z,97157.94
2023-05-05T14:20:47.250Z,97163.09
2023-05-05T14:23:13.664Z,97168.34
2023-05-05T14:25:40.129Z,97167.94
2023-05-05T14:28:07.141Z,97171.28
2023-05-05T14:30:33.718Z,97170.13
2023-05-05T14:33:01.268Z,97172.28
2023-05-05T14:35:27.909Z,97173.56
2023-05-05T14:37:54.322Z,97168.13
2023-05-05T14:40:20.874Z,97162.75
2023-05-05T14:42:47.301Z,97150.31
2023-05-05T14:45:13.826Z,97157.13
2023-05-05T14:47:40.351Z,97152.97
2023-05-05T14:50:09.624Z,97153.94
2023-05-05T14:52:40.214Z,97156.41
2023-05-05T14:55:07.997Z,97152.03
2023-05-05T14:57:34.780Z,97150.41
2023-05-05T15:00:01.394Z,97148.47
2023-05-05T15:02:27.894Z,97154.13
2023-05-05T15:04:54.415Z,97151.19
2023-05-05T15:07:22.513Z,97153.28
2023-05-05T15:09:48.987Z,97150.81
2023-05-05T15:12:15.493Z,97151.25
2023-05-05T15:14:42.178Z,97151.56
2023-05-05T15:17:08.644Z,97137.06
2023-05-05T15:19:35.066Z,97136.13
2023-05-05T15:22:01.544Z,97137.13
2023-05-05T15:24:28.118Z,97131.31
2023-05-05T15:26:54.647Z,97134.09
2023-05-05T15:29:21.444Z,97130.56
2023-05-05T15:31:47.915Z,97134.19
2023-05-05T15:34:14.468Z,97123.22
2023-05-05T15:36:40.879Z,97128.47
2023-05-05T15:39:07.365Z,97127.00
2023-05-05T15:41:34.224Z,97126.81
2023-05-05T15:44:02.032Z,97141.13
2023-05-05T15:46:31.638Z,97149.34
2023-05-05T15:48:58.151Z,97170.91
2023-05-05T15:51:24.614Z,97177.19
2023-05-05T15:53:52.310Z,97177.22
2023-05-05T15:56:19.160Z,97183.78
2023-05-05T15:58:45.691Z,97199.72
2023-05-05T16:01:12.294Z,97206.59
2023-05-05T16:03:38.787Z,97221.78
2023-05-05T16:06:05.402Z,97230.81
2023-05-05T16:08:32.066Z,97233.06
2023-05-05T16:10:58.483Z,97233.34
2023-05-05T16:13:24.914Z,97238.69
2023-05-05T16:15:51.393Z,97242.28
2023-05-05T16:18:17.843Z,97257.34
2023-05-05T16:20:44.426Z,97254.97
2023-05-05T16:23:10.969Z,97254.91
2023-05-05T16:25:37.694Z,97257.19
2023-05-05T16:28:04.476Z,97255.34
2023-05-05T16:30:30.988Z,97253.81
2023-05-05T16:32:57.591Z,97262.84
2023-05-05T16:35:24.021Z,97265.34
2023-05-05T16:37:50.535Z,97262.38
2023-05-05T16:40:17.104Z,97265.72
2023-05-05T16:42:44.561Z,97265.16
2023-05-05T16:45:11.668Z,97259.25
2023-05-05T16:47:38.347Z,97254.53
2023-05-05T16:50:05.519Z,97246.63
2023-05-05T16:52:31.966Z,97237.69
2023-05-05T16:54:58.502Z,97229.50
2023-05-05T16:57:25.010Z,97235.25
2023-05-05T16:59:54.465Z,97229.69
2023-05-05T17:02:21.105Z,97220.47
2023-05-05T17:04:47.634Z,97225.97
2023-05-05T17:07:14.143Z,97228.81
2023-05-05T17:09:40.594Z,97225.56
2023-05-05T17:12:07.230Z,97224.31
2023-05-05T17:14:33.815Z,97228.22
2023-05-05T17:17:00.315Z,97224.13
2023-05-05T17:19:26.725Z,97232.16
2023-05-05T17:21:54.203Z,97241.28
2023-05-05T17:24:21.022Z,97242.97
2023-05-05T17:26:47.544Z,97249.41
2023-05-05T17:29:15.222Z,97248.63
2023-05-05T17:31:41.953Z,97260.78
2023-05-05T17:34:08.507Z,97253.81
2023-05-05T17:36:35.451Z,97257.81
2023-05-05T17:39:02.040Z,97251.03
2023-05-05T17:41:28.459Z,97254.66
2023-05-05T17:43:55.670Z,97262.38
2023-05-05T17:46:22.260Z,97259.59
2023-05-05T17:48:48.828Z,97254.34
2023-05-05T17:51:15.381Z,97257.91
2023-05-05T17:53:41.874Z,97255.16
2023-05-05T17:56:09.034Z,97256.69
2023-05-05T17:58:35.794Z,97258.53
2023-05-05T18:01:02.281Z,97253.13
2023-05-05T18:03:28.895Z,97256.19
2023-05-05T18:05:56.026Z,97252.16
2023-05-05T18:08:22.566Z,97253.47
2023-05-05T18:10:49.224Z,97247.75
2023-05-05T18:13:15.869Z,97250.19
2023-05-05T18:15:42.416Z,97244.41
2023-05-05T18:18:08.967Z,97253.72
2023-05-05T18:20:35.456Z,97256.50
2023-05-05T18:23:01.909Z,97254.66
2023-05-05T18:25:28.377Z,97250.59
2023-05-05T18:27:54.839Z,97255.75
2023-05-05T18:30:21.375Z,97257.16
2023-05-05T18:32:48.653Z,97257.41
2023-05-05T18:35:15.560Z,97249.25
2023-05-05T18:37:42.201Z,97256.81
2023-05-05T18:40:09.967Z,97263.91
2023-05-05T18:42:36.539Z,97266.59
2023-05-05T18:45:03.176Z,97266.66
2023-05-05T18:47:29.697Z,97274.84
2023-05-05T18:49:56.348Z,97277.00
2023-05-05T18:52:22.916Z,97283.88
2023-05-05T18:54:49.474Z,97285.81
2023-05-05T18:57:16.183Z,97286.69
2023-05-05T18:59:42.662Z,97293.44
2023-05-05T19:02:09.115Z,97288.25
2023-05-05T19:04:37.823Z,97294.78
2023-05-05T19:07:04.758Z,97299.44
2023-05-05T19:09:31.351Z,97309.50
2023-05-05T19:11:57.875Z,97312.50
2023-05-05T19:14:24.389Z,97319.84
2023-05-05T19:16:51.227Z,97323.16
2023-05-05T19:19:18.124Z,97329.16
2023-05-05T19:21:44.638Z,97334.03
2023-05-05T19:24:11.816Z,97331.03
2023-05-05T19:26:40.814Z,97338.38
2023-05-05T19:29:07.350Z,97339.47
2023-05-05T19:31:33.868Z,97336.75
2023-05-05T19:34:02.313Z,97338.69
2023-05-05T19:36:31.598Z,97335.41
2023-05-05T19:39:01.582Z,97339.78
2023-05-05T19:41:28.982Z,97341.66
2023-05-05T19:43:55.536Z,97340.03
2023-05-05T19:46:24.172Z,97336.81
2023-05-05T19:48:50.587Z,97348.22
2023-05-05T19:51:17.040Z,97355.59
2023-05-05T19:53:43.823Z,97350.94
2023-05-05T19:56:10.401Z,97346.59
2023-05-05T19:58:57.193Z,97348.22
2023-05-05T20:01:24.175Z,97352.84
2023-05-05T20:03:52.260Z,97359.38
2023-05-05T20:06:18.738Z,97355.00
2023-05-05T20:08:45.297Z,97359.66
2023-05-05T20:11:12.110Z,97359.66
2023-05-05T20:13:39.011Z,97360.47
2023-05-05T20:16:06.196Z,97355.84
2023-05-05T20:18:33.073Z,97361.03
2023-05-05T20:20:59.880Z,97367.81
2023-05-05T20:23:26.912Z,97373.50
2023-05-05T20:25:54.474Z,97376.81
2023-05-05T20:28:21.048Z,97383.03
2023-05-05T20:30:47.543Z,97387.94
2023-05-05T20:33:13.969Z,97377.03
2023-05-05T20:35:40.518Z,97381.41
2023-05-05T20:38:07.016Z,97374.63
2023-05-05T20:40:33.572Z,97376.78
2023-05-05T20:43:00.210Z,97373.53
2023-05-05T20:45:26.746Z,97377.91
2023-05-05T20:47:53.386Z,97371.66
2023-05-05T20:50:22.564Z,97359.41
2023-05-05T20:52:49.513Z,97365.13
2023-05-05T20:55:16.215Z,97367.84
2023-05-05T20:57:42.636Z,97372.72
2023-05-05T21:00:09.667Z,97373.22
2023-05-05T21:02:36.464Z,97368.38
2023-05-05T21:05:03.270Z,97361.03
2023-05-05T21:07:31.145Z,97354.22
2023-05-05T21:09:57.719Z,97360.47
2023-05-05T21:12:24.148Z,97354.22
2023-05-05T21:14:50.620Z,97351.22
2023-05-05T21:17:17.047Z,97354.78
2023-05-05T21:19:43.456Z,97350.69
2023-05-05T21:22:09.914Z,97355.00
2023-05-05T21:24:38.131Z,97356.97
2023-05-05T21:27:04.612Z,97353.41
2023-05-05T21:29:37.334Z,97355.31
2023-05-05T21:32:08.276Z,97351.78
2023-05-05T21:34:35.185Z,97362.09
2023-05-05T21:37:01.726Z,97352.56
2023-05-05T21:39:29.224Z,97353.94
2023-05-05T21:41:55.658Z,97346.84
2023-05-05T21:44:22.266Z,97346.34
2023-05-05T21:46:48.771Z,97344.97
2023-05-05T21:49:16.767Z,97347.38
2023-05-05T21:51:44.274Z,97350.66
2023-05-05T21:54:11.316Z,97349.63
2023-05-05T21:56:38.003Z,97346.88
2023-05-05T21:59:05.528Z,97343.56
2023-05-05T22:01:32.291Z,97344.13
2023-05-05T22:03:59.045Z,97345.72
2023-05-05T22:06:25.672Z,97342.50
2023-05-05T22:08:52.132Z,97334.66
2023-05-05T22:11:18.848Z,97336.28
2023-05-05T22:13:46.420Z,97347.97
2023-05-05T22:16:15.896Z,97345.78
2023-05-05T22:18:42.315Z,97346.34
2023-05-05T22:21:08.915Z,97337.66
2023-05-05T22:23:37.039Z,97340.09
2023-05-05T22:26:04.735Z,97331.09
2023-05-05T22:28:31.201Z,97337.03
2023-05-05T22:30:57.611Z,97332.44
2023-05-05T22:33:24.343Z,97336.50
2023-05-05T22:35:51.922Z,97343.53
2023-05-05T22:38:18.514Z,97333.44
2023-05-05T22:40:45.358Z,97338.88
2023-05-05T22:43:11.957Z,97339.66
2023-05-05T22:45:38.462Z,97339.13
2023-05-05T22:48:05.439Z,97348.91
2023-05-05T22:50:32.059Z,97345.09
2023-05-05T22:52:58.566Z,97348.41
2023-05-05T22:55:25.174Z,97354.41
2023-05-05T22:57:52.515Z,97348.72
2023-05-05T23:00:19.414Z,97349.81
2023-05-05T23:02:45.926Z,97352.72
2023-05-05T23:05:12.742Z,97352.97
2023-05-05T23:07:39.335Z,97349.72
2023-05-05T23:10:06.304Z,97345.94
2023-05-05T23:12:33.033Z,97348.91
2023-05-05T23:14:59.560Z,97345.66
2023-05-05T23:17:26.087Z,97343.72
2023-05-05T23:19:52.735Z,97347.28
2023-05-05T23:22:19.165Z,97346.75
2023-05-05T23:24:45.690Z,97343.75
2023-05-05T23:27:13.159Z,97348.66
2023-05-05T23:29:39.642Z,97349.22
2023-05-05T23:32:06.326Z,97354.59
2023-05-05T23:34:32.824Z,97353.81
2023-05-05T23:36:59.424Z,97358.94
2023-05-05T23:39:25.829Z,97358.66
2023-05-05T23:41:52.347Z,97352.66
2023-05-05T23:44:18.964Z,97347.78
2023-05-05T23:46:45.402Z,97346.13
2023-05-05T23:49:11.834Z,97339.38
2023-05-05T23:51:38.292Z,97348.88
2023-05-05T23:54:04.792Z,97349.66
2023-05-05T23:56:31.263Z,97352.38
2023-05-05T23:58:57.713Z,97345.56
